CheckWX is a tool to help pilots better visualize weather data.  It is not intended as a substitute for an official pre-flight weather briefing.

07:31:43 UTC

CYOO TAF
Oshawa Airport
Oshawa, Canada
TAF CYOO 170138Z 1702/1714 VRB03KT P6SM FEW150 FM171000 VRB03KT P6SM BKN100 RMK FCST BASED ON AUTO OBS. NXT FCST BY 170800Z

Jun-17@
02:00 UTC

Jun-17 @ 02:00 UTC

Jun-17@
10:00 UTC

Jun-17 @ 10:00 UTC

TAF CYOO 170138Z 1702/1714 VRB03KT P6SM FEW150
Wind
  • Variable at 3 KTS
Cloud Levels
  • Few at 15,000' AGL

Jun-17@
10:00 UTC

Jun-17 @ 10:00 UTC

Jun-17@
14:00 UTC

Jun-17 @ 14:00 UTC

FM171000 VRB03KT P6SM BKN100 RMK FCST BASED ON AUTO OBS. NXT FCST BY 170800Z

From

From Standard forecast or significant change

Wind
  • Variable at 3 KTS
Cloud Levels
  • Broken at 10,000' AGL